sensor_id;sensor_type;location;lat;lon;timestamp;pressure;altitude;pressure_sealevel;temperature;humidity
10700;BME280;5401;41.986;21.452;2023-07-24T00:00:25;98518.88;;;25.20;64.15
10700;BME280;5401;41.986;21.452;2023-07-24T00:02:52;98517.84;;;25.16;63.89
10700;BME280;5401;41.986;21.452;2023-07-24T00:05:21;98517.16;;;25.11;64.30
10700;BME280;5401;41.986;21.452;2023-07-24T00:07:49;98524.53;;;25.10;64.54
10700;BME280;5401;41.986;21.452;2023-07-24T00:10:16;98516.81;;;24.99;64.74
10700;BME280;5401;41.986;21.452;2023-07-24T00:12:44;98524.00;;;24.95;65.50
10700;BME280;5401;41.986;21.452;2023-07-24T00:15:13;98518.00;;;24.93;65.66
10700;BME280;5401;41.986;21.452;2023-07-24T00:17:40;98516.94;;;24.89;65.47
10700;BME280;5401;41.986;21.452;2023-07-24T00:20:08;98512.06;;;24.86;65.85
10700;BME280;5401;41.986;21.452;2023-07-24T00:22:36;98509.41;;;24.81;66.27
10700;BME280;5401;41.986;21.452;2023-07-24T00:25:04;98510.03;;;24.78;66.51
10700;BME280;5401;41.986;21.452;2023-07-24T00:27:32;98504.72;;;24.69;66.27
10700;BME280;5401;41.986;21.452;2023-07-24T00:29:59;98507.97;;;24.71;66.65
10700;BME280;5401;41.986;21.452;2023-07-24T00:32:28;98504.38;;;24.70;66.67
10700;BME280;5401;41.986;21.452;2023-07-24T00:34:55;98491.59;;;24.66;66.81
10700;BME280;5401;41.986;21.452;2023-07-24T00:37:24;98511.28;;;24.68;66.93
10700;BME280;5401;41.986;21.452;2023-07-24T00:39:51;98510.19;;;24.69;67.48
10700;BME280;5401;41.986;21.452;2023-07-24T00:42:19;98507.44;;;24.69;67.25
10700;BME280;5401;41.986;21.452;2023-07-24T00:44:46;98521.66;;;24.71;67.51
10700;BME280;5401;41.986;21.452;2023-07-24T00:47:14;98517.78;;;24.72;67.56
10700;BME280;5401;41.986;21.452;2023-07-24T00:49:43;98518.59;;;24.72;67.87
10700;BME280;5401;41.986;21.452;2023-07-24T00:52:12;98509.66;;;24.67;67.57
10700;BME280;5401;41.986;21.452;2023-07-24T00:54:40;98504.78;;;24.64;67.82
10700;BME280;5401;41.986;21.452;2023-07-24T00:57:07;98501.84;;;24.60;67.90
10700;BME280;5401;41.986;21.452;2023-07-24T00:59:35;98506.19;;;24.61;68.05
10700;BME280;5401;41.986;21.452;2023-07-24T01:02:03;98509.94;;;24.65;68.30
10700;BME280;5401;41.986;21.452;2023-07-24T01:04:31;98516.75;;;24.68;68.21
10700;BME280;5401;41.986;21.452;2023-07-24T01:07:00;98509.16;;;24.65;68.40
10700;BME280;5401;41.986;21.452;2023-07-24T01:09:27;98505.97;;;24.58;68.35
10700;BME280;5401;41.986;21.452;2023-07-24T01:11:58;98514.66;;;24.46;68.56
10700;BME280;5401;41.986;21.452;2023-07-24T01:14:32;98513.16;;;24.36;68.87
10700;BME280;5401;41.986;21.452;2023-07-24T01:17:06;98509.81;;;24.20;69.21
10700;BME280;5401;41.986;21.452;2023-07-24T01:19:37;98516.22;;;24.11;69.46
10700;BME280;5401;41.986;21.452;2023-07-24T01:22:13;98509.03;;;23.97;69.53
10700;BME280;5401;41.986;21.452;2023-07-24T01:25:01;98512.22;;;23.62;70.58
10700;BME280;5401;41.986;21.452;2023-07-24T01:27:32;98505.34;;;23.36;71.42
10700;BME280;5401;41.986;21.452;2023-07-24T01:30:00;98510.22;;;23.16;71.56
10700;BME280;5401;41.986;21.452;2023-07-24T01:32:28;98513.19;;;23.20;72.07
10700;BME280;5401;41.986;21.452;2023-07-24T01:34:55;98510.09;;;23.31;72.15
10700;BME280;5401;41.986;21.452;2023-07-24T01:37:24;98508.09;;;23.36;72.09
10700;BME280;5401;41.986;21.452;2023-07-24T01:39:53;98517.97;;;23.32;72.25
10700;BME280;5401;41.986;21.452;2023-07-24T01:42:21;98519.78;;;23.42;72.20
10700;BME280;5401;41.986;21.452;2023-07-24T01:44:52;98523.81;;;23.49;71.92
10700;BME280;5401;41.986;21.452;2023-07-24T01:47:20;98518.03;;;23.51;71.83
10700;BME280;5401;41.986;21.452;2023-07-24T01:49:48;98524.31;;;23.56;72.24
10700;BME280;5401;41.986;21.452;2023-07-24T01:52:15;98521.50;;;23.61;72.01
10700;BME280;5401;41.986;21.452;2023-07-24T01:54:43;98518.13;;;23.69;71.99
10700;BME280;5401;41.986;21.452;2023-07-24T01:57:10;98521.63;;;23.74;71.68
10700;BME280;5401;41.986;21.452;2023-07-24T01:59:38;98502.25;;;23.71;71.60
10700;BME280;5401;41.986;21.452;2023-07-24T02:02:07;98507.88;;;23.79;71.55
10700;BME280;5401;41.986;21.452;2023-07-24T02:04:34;98509.44;;;23.85;71.57
10700;BME280;5401;41.986;21.452;2023-07-24T02:07:02;98511.59;;;23.88;71.31
10700;BME280;5401;41.986;21.452;2023-07-24T02:09:29;98514.78;;;23.95;71.28
10700;BME280;5401;41.986;21.452;2023-07-24T02:11:57;98511.16;;;23.99;70.71
10700;BME280;5401;41.986;21.452;2023-07-24T02:14:24;98511.69;;;24.01;70.91
10700;BME280;5401;41.986;21.452;2023-07-24T02:16:52;98510.00;;;24.05;70.82
10700;BME280;5401;41.986;21.452;2023-07-24T02:19:21;98506.16;;;24.06;70.83
10700;BME280;5401;41.986;21.452;2023-07-24T02:21:49;98509.19;;;24.05;70.80
10700;BME280;5401;41.986;21.452;2023-07-24T02:24:16;98517.38;;;24.05;70.83
10700;BME280;5401;41.986;21.452;2023-07-24T02:26:45;98520.66;;;24.07;71.07
10700;BME280;5401;41.986;21.452;2023-07-24T02:29:12;98519.56;;;24.08;70.65
10700;BME280;5401;41.986;21.452;2023-07-24T02:31:40;98516.34;;;24.01;70.91
10700;BME280;5401;41.986;21.452;2023-07-24T02:34:07;98514.22;;;23.98;71.03
10700;BME280;5401;41.986;21.452;2023-07-24T02:36:36;98512.50;;;23.84;70.87
10700;BME280;5401;41.986;21.452;2023-07-24T02:39:03;98518.75;;;23.84;71.26
10700;BME280;5401;41.986;21.452;2023-07-24T02:41:31;98517.47;;;23.77;71.68
10700;BME280;5401;41.986;21.452;2023-07-24T02:43:58;98515.47;;;23.64;72.02
10700;BME280;5401;41.986;21.452;2023-07-24T02:46:26;98509.75;;;23.61;71.93
10700;BME280;5401;41.986;21.452;2023-07-24T02:48:54;98521.56;;;23.56;72.16
10700;BME280;5401;41.986;21.452;2023-07-24T02:51:22;98522.25;;;23.43;72.59
10700;BME280;5401;41.986;21.452;2023-07-24T02:53:52;98513.75;;;23.17;72.85
10700;BME280;5401;41.986;21.452;2023-07-24T02:56:20;98522.91;;;23.02;73.16
10700;BME280;5401;41.986;21.452;2023-07-24T02:58:47;98515.03;;;23.01;73.38
10700;BME280;5401;41.986;21.452;2023-07-24T03:01:14;98512.19;;;22.78;74.40
10700;BME280;5401;41.986;21.452;2023-07-24T03:03:52;98528.91;;;22.71;74.77
10700;BME280;5401;41.986;21.452;2023-07-24T03:06:36;98523.78;;;22.60;74.69
10700;BME280;5401;41.986;21.452;2023-07-24T03:09:05;98514.34;;;22.48;75.11
10700;BME280;5401;41.986;21.452;2023-07-24T03:11:32;98517.66;;;22.40;75.71
10700;BME280;5401;41.986;21.452;2023-07-24T03:14:00;98510.34;;;22.35;76.50
10700;BME280;5401;41.986;21.452;2023-07-24T03:16:27;98510.53;;;22.44;75.94
10700;BME280;5401;41.986;21.452;2023-07-24T03:18:55;98513.47;;;22.57;76.65
10700;BME280;5401;41.986;21.452;2023-07-24T03:21:22;98521.53;;;22.72;76.46
10700;BME280;5401;41.986;21.452;2023-07-24T03:23:50;98522.78;;;22.84;75.68
10700;BME280;5401;41.986;21.452;2023-07-24T03:26:19;98507.47;;;22.88;75.50
10700;BME280;5401;41.986;21.452;2023-07-24T03:28:46;98513.97;;;22.97;75.10
10700;BME280;5401;41.986;21.452;2023-07-24T03:31:14;98524.75;;;23.12;74.94
10700;BME280;5401;41.986;21.452;2023-07-24T03:33:41;98521.13;;;23.21;74.42
10700;BME280;5401;41.986;21.452;2023-07-24T03:36:09;98525.13;;;23.28;73.42
10700;BME280;5401;41.986;21.452;2023-07-24T03:38:36;98520.94;;;23.36;73.27
10700;BME280;5401;41.986;21.452;2023-07-24T03:41:04;98528.69;;;23.52;72.75
10700;BME280;5401;41.986;21.452;2023-07-24T03:43:33;98524.63;;;23.73;71.91
10700;BME280;5401;41.986;21.452;2023-07-24T03:46:00;98527.13;;;23.93;71.23
10700;BME280;5401;41.986;21.452;2023-07-24T03:48:27;98520.50;;;24.17;70.04
10700;BME280;5401;41.986;21.452;2023-07-24T03:50:58;98511.75;;;24.38;69.58
10700;BME280;5401;41.986;21.452;2023-07-24T03:53:26;98526.75;;;24.77;68.62
10700;BME280;5401;41.986;21.452;2023-07-24T03:55:53;98525.09;;;25.26;67.44
10700;BME280;5401;41.986;21.452;2023-07-24T03:58:23;98518.28;;;25.68;66.06
10700;BME280;5401;41.986;21.452;2023-07-24T04:00:52;98524.53;;;26.09;64.33
10700;BME280;5401;41.986;21.452;2023-07-24T04:03:19;98531.66;;;26.58;63.22
10700;BME280;5401;41.986;21.452;2023-07-24T04:05:47;98528.19;;;27.01;61.98
10700;BME280;5401;41.986;21.452;2023-07-24T04:08:14;98532.56;;;27.54;60.75
10700;BME280;5401;41.986;21.452;2023-07-24T04:10:41;98533.31;;;28.06;59.52
10700;BME280;5401;41.986;21.452;2023-07-24T04:13:09;98535.66;;;28.54;57.84
10700;BME280;5401;41.986;21.452;2023-07-24T04:15:36;98534.22;;;28.90;57.03
10700;BME280;5401;41.986;21.452;2023-07-24T04:18:05;98532.59;;;29.14;56.26
10700;BME280;5401;41.986;21.452;2023-07-24T04:20:33;98543.41;;;29.44;55.89
10700;BME280;5401;41.986;21.452;2023-07-24T04:23:00;98545.31;;;29.78;55.04
10700;BME280;5401;41.986;21.452;2023-07-24T04:25:28;98551.94;;;30.14;54.11
10700;BME280;5401;41.986;21.452;2023-07-24T04:27:55;98549.09;;;30.59;53.91
10700;BME280;5401;41.986;21.452;2023-07-24T04:30:23;98542.31;;;31.17;52.18
10700;BME280;5401;41.986;21.452;2023-07-24T04:32:50;98543.56;;;31.84;50.91
10700;BME280;5401;41.986;21.452;2023-07-24T04:35:19;98545.31;;;32.47;50.03
10700;BME280;5401;41.986;21.452;2023-07-24T04:37:46;98539.03;;;32.86;48.73
10700;BME280;5401;41.986;21.452;2023-07-24T04:40:14;98527.84;;;32.82;48.55
10700;BME280;5401;41.986;21.452;2023-07-24T04:42:41;98537.31;;;33.08;47.84
10700;BME280;5401;41.986;21.452;2023-07-24T04:45:09;98551.25;;;33.78;46.91
10700;BME280;5401;41.986;21.452;2023-07-24T04:47:37;98556.03;;;34.39;45.85
10700;BME280;5401;41.986;21.452;2023-07-24T04:50:05;98554.72;;;34.67;44.97
10700;BME280;5401;41.986;21.452;2023-07-24T04:52:35;98546.16;;;34.75;44.66
10700;BME280;5401;41.986;21.452;2023-07-24T04:55:02;98549.97;;;34.83;44.72
10700;BME280;5401;41.986;21.452;2023-07-24T04:57:30;98563.72;;;34.94;44.16
10700;BME280;5401;41.986;21.452;2023-07-24T04:59:57;98562.50;;;35.11;43.75
10700;BME280;5401;41.986;21.452;2023-07-24T05:02:25;98566.69;;;35.20;43.63
10700;BME280;5401;41.986;21.452;2023-07-24T05:04:52;98561.03;;;35.17;43.92
10700;BME280;5401;41.986;21.452;2023-07-24T05:07:19;98564.09;;;35.12;43.38
10700;BME280;5401;41.986;21.452;2023-07-24T05:09:48;98563.97;;;34.71;44.05
10700;BME280;5401;41.986;21.452;2023-07-24T05:12:16;98562.41;;;34.24;44.43
10700;BME280;5401;41.986;21.452;2023-07-24T05:14:43;98574.66;;;34.54;44.67
10700;BME280;5401;41.986;21.452;2023-07-24T05:17:11;98575.28;;;34.96;43.62
10700;BME280;5401;41.986;21.452;2023-07-24T05:19:38;98573.22;;;34.59;44.11
10700;BME280;5401;41.986;21.452;2023-07-24T05:22:06;98571.78;;;34.19;44.68
10700;BME280;5401;41.986;21.452;2023-07-24T05:24:33;98578.28;;;34.39;44.65
10700;BME280;5401;41.986;21.452;2023-07-24T05:27:03;98572.03;;;34.76;44.62
10700;BME280;5401;41.986;21.452;2023-07-24T05:29:30;98573.56;;;35.07;43.81
10700;BME280;5401;41.986;21.452;2023-07-24T05:31:58;98587.75;;;35.36;43.31
10700;BME280;5401;41.986;21.452;2023-07-24T05:34:26;98579.34;;;35.33;42.51
10700;BME280;5401;41.986;21.452;2023-07-24T05:36:53;98587.91;;;35.43;42.63
10700;BME280;5401;41.986;21.452;2023-07-24T05:39:21;98581.28;;;35.70;41.98
10700;BME280;5401;41.986;21.452;2023-07-24T05:41:48;98590.56;;;35.77;41.82
